Portada
METAR-TAF:

METAR-TAF

Aeroports :

Guilin, Xina

latitud: 25-20N, longitud: 110-18E, altitud: 166 m

Observació

L'informe es va fer fa 52 minuts, a les 23:00 UTC
Vent calma
Temperatura 17°C
Humitat 94%
Pressió 1020 hPa
Visibilitat: 2500 m
Cel ennuvolat a una alçada de 2000 ft
Cel cobert a una alçada de 3300 ft
boirina

METAR: ZGKL 192300Z 00000MPS 2500 BR BKN020 OVC033 17/16 Q1020 NOSIG

Hora: 07:52 (23:52 UTC)

Pronòstic

L'informe es va fer fa 4 hores i 35 minuts, a les 19:17 UTC
Pronòstic vàlid del 20 a les 00 UTC al 20 a les 24 UTC
Vent 2 kt amb direcció variable
Visibilitat: 1800 m
Núvols disperses a una alçada de 2000 ft
Cel cobert a una alçada de 5000 ft
pluja, boirina
Evolucionant progressivament
l' 20 a les 13 UTC al 20 a les 14 UTC
Visibilitat: 1300 m

TAF: ZGKL 191917Z 2000/2024 VRB01MPS 1800 -RA BR SCT020 OVC050 TX19/2008Z TN17/2023Z BECMG 2013/2014 1300

Observacions i pronòstics meteorològics de més de 4000 aeroports (METAR i TAF).

Les estacions disponibles són els punts grocs i vermells al mapa.

Posi el ratolí al punt desitjat per veure el nom de l'estació.

Feu clic per veure les observacions i els pronòstics meteorològics.

Per canviar el mapa: feu clic els botons verds amb una creu de color negre per apropar; al botó verd amb un guió per allunyar la imatge; o en les fletxes verdes per a mapes adjacents.


METAR-TAF: